Time;durP1;ratioP1;P1;durP2;ratioP2;P2;SDS_P1;SDS_P2;PMS_P1;PMS_P2;Temp;Humidity;BMP_temperature;BMP_pressure;BME280_temperature;BME280_humidity;BME280_pressure;Samples;Min_cycle;Max_cycle;Signal;HPM_P1;HPM_P2
2022/01/05 00:01:26;;;;;;;6.23;2.70;;;4.10;99.90;;;;;;2608673;46;20861;-82
2022/01/05 00:03:52;;;;;;;4.63;3.33;;;4.00;99.90;;;;;;2613540;47;20158;-79
2022/01/05 00:06:18;;;;;;;6.87;2.87;;;3.90;99.90;;;;;;2613472;54;20555;-80
2022/01/05 00:08:44;;;;;;;4.23;2.53;;;3.80;99.90;;;;;;2612688;47;21272;-78
2022/01/05 00:11:10;;;;;;;4.07;2.40;;;3.80;99.90;;;;;;2610326;54;20401;-79
2022/01/05 00:13:37;;;;;;;5.87;3.30;;;3.90;99.90;;;;;;2611663;47;20432;-81
2022/01/05 00:16:03;;;;;;;3.33;2.23;;;3.80;99.90;;;;;;2612174;39;20918;-79
2022/01/05 00:18:31;;;;;;;5.30;2.40;;;3.70;99.90;;;;;;2609279;47;20406;-81
2022/01/05 00:20:57;;;;;;;9.30;4.77;;;3.70;99.90;;;;;;2611761;39;20660;-79
2022/01/05 00:23:23;;;;;;;8.87;3.50;;;3.70;99.90;;;;;;2612338;54;20416;-81
2022/01/05 00:25:50;;;;;;;3.50;3.00;;;3.60;99.90;;;;;;2611497;54;20412;-78
2022/01/05 00:28:16;;;;;;;8.23;4.13;;;3.70;99.90;;;;;;2609287;54;20410;-81
2022/01/05 00:30:41;;;;;;;5.13;3.50;;;3.80;99.90;;;;;;2611218;54;20391;-80
2022/01/05 00:33:07;;;;;;;5.50;3.00;;;3.90;99.90;;;;;;2609035;46;20427;-79
2022/01/05 00:35:33;;;;;;;8.33;4.60;;;3.80;99.90;;;;;;2612646;54;20150;-79
2022/01/05 00:37:59;;;;;;;4.73;3.53;;;3.70;99.90;;;;;;2609805;54;20398;-77
2022/01/05 00:40:25;;;;;;;8.33;5.07;;;3.80;99.90;;;;;;2612731;54;20426;-77
2022/01/05 00:42:51;;;;;;;11.03;5.40;;;3.90;99.90;;;;;;2609847;39;20816;-78
2022/01/05 00:45:17;;;;;;;4.10;2.60;;;3.80;99.90;;;;;;2613177;47;20427;-79
2022/01/05 00:47:43;;;;;;;10.07;5.90;;;3.80;99.90;;;;;;2611290;54;20529;-81
2022/01/05 00:50:09;;;;;;;14.47;4.70;;;3.80;99.90;;;;;;2611206;54;20257;-77
2022/01/05 00:52:35;;;;;;;11.87;5.57;;;3.90;99.90;;;;;;2610252;47;21174;-81
2022/01/05 00:55:01;;;;;;;10.37;4.37;;;4.00;99.90;;;;;;2611590;54;20447;-82
2022/01/05 00:57:26;;;;;;;3.40;2.60;;;3.90;99.90;;;;;;2613629;39;20898;-81
2022/01/05 00:59:52;;;;;;;8.77;4.17;;;3.90;99.90;;;;;;2611397;54;21743;-79
2022/01/05 01:02:18;;;;;;;4.00;2.33;;;3.90;99.90;;;;;;2612331;54;20123;-78
2022/01/05 01:04:44;;;;;;;8.27;4.83;;;3.90;99.90;;;;;;2613153;54;20162;-81
2022/01/05 01:07:10;;;;;;;11.97;3.80;;;3.90;99.90;;;;;;2611765;54;20131;-79
2022/01/05 01:09:36;;;;;;;5.87;3.50;;;3.90;99.90;;;;;;2612995;47;20503;-80
2022/01/05 01:12:02;;;;;;;15.43;5.13;;;3.90;99.90;;;;;;2610657;39;22253;-80
2022/01/05 01:14:28;;;;;;;8.90;3.63;;;3.90;99.90;;;;;;2612037;54;20416;-80
2022/01/05 01:16:54;;;;;;;5.77;4.97;;;3.90;99.90;;;;;;2610241;47;21379;-79
2022/01/05 01:19:19;;;;;;;11.53;3.83;;;3.90;99.90;;;;;;2610537;54;20147;-81
2022/01/05 01:21:45;;;;;;;6.20;3.73;;;4.00;99.90;;;;;;2611658;54;20143;-79
2022/01/05 01:24:11;;;;;;;7.10;3.23;;;3.90;99.90;;;;;;2609286;54;20416;-80
2022/01/05 01:26:37;;;;;;;8.17;3.97;;;3.90;99.90;;;;;;2612055;47;20170;-80
2022/01/05 01:29:03;;;;;;;12.13;5.00;;;3.90;99.90;;;;;;2611773;47;20170;-79
2022/01/05 01:31:29;;;;;;;15.07;4.70;;;3.90;99.90;;;;;;2611698;54;20630;-82
2022/01/05 01:33:55;;;;;;;6.90;4.17;;;3.90;99.90;;;;;;2611786;54;20399;-81
2022/01/05 01:36:21;;;;;;;13.43;4.83;;;3.90;99.90;;;;;;2612688;54;20426;-82
2022/01/05 01:38:47;;;;;;;8.53;4.80;;;3.80;99.90;;;;;;2613550;54;20503;-80
2022/01/05 01:41:13;;;;;;;14.23;5.67;;;3.80;99.90;;;;;;2610055;54;20913;-80
2022/01/05 01:43:39;;;;;;;10.53;5.23;;;3.80;99.90;;;;;;2611233;54;20539;-78
2022/01/05 01:46:08;;;;;;;6.00;2.73;;;3.80;99.90;;;;;;2612246;54;20407;-77
2022/01/05 01:48:34;;;;;;;6.87;5.90;;;3.70;99.90;;;;;;2609365;39;20700;-80
2022/01/05 01:51:00;;;;;;;14.17;3.60;;;3.70;99.90;;;;;;2610068;47;20436;-81
2022/01/05 01:53:26;;;;;;;6.10;3.07;;;3.70;99.90;;;;;;2608362;54;20392;-78
2022/01/05 01:55:54;;;;;;;5.70;3.10;;;3.70;99.90;;;;;;2611501;54;20714;-79
2022/01/05 01:58:23;;;;;;;6.50;3.03;;;3.70;99.90;;;;;;2612964;54;20563;-81
2022/01/05 02:00:49;;;;;;;10.50;3.37;;;3.70;99.90;;;;;;2612654;54;20431;-76
2022/01/05 02:03:15;;;;;;;7.00;3.70;;;3.60;99.90;;;;;;2611060;47;21001;-76
2022/01/05 02:05:42;;;;;;;7.17;2.70;;;3.70;99.90;;;;;;2612823;54;20143;-76
2022/01/05 02:08:08;;;;;;;9.67;2.53;;;3.60;99.90;;;;;;2614043;54;20479;-76
2022/01/05 02:10:34;;;;;;;5.90;3.77;;;3.60;99.90;;;;;;2613416;54;20387;-75
2022/01/05 02:13:00;;;;;;;5.80;3.50;;;3.50;99.90;;;;;;2609907;54;20143;-75
2022/01/05 02:15:26;;;;;;;4.47;2.87;;;3.50;99.90;;;;;;2611986;54;20549;-76
2022/01/05 02:18:07;;;;;;;5.50;3.07;;;3.50;99.90;;;;;;2610321;51;20431;-75
2022/01/05 02:20:33;;;;;;;2.83;1.67;;;3.50;99.90;;;;;;2613491;54;20391;-76
2022/01/05 02:23:00;;;;;;;7.23;3.80;;;3.50;99.90;;;;;;2611866;54;20399;-75
2022/01/05 02:25:27;;;;;;;6.30;3.20;;;3.60;99.90;;;;;;2612294;47;20428;-74
2022/01/05 02:27:55;;;;;;;8.00;3.90;;;3.60;99.90;;;;;;2611174;47;20426;-76
2022/01/05 02:30:24;;;;;;;13.03;4.40;;;3.60;99.90;;;;;;2613029;54;20560;-75
2022/01/05 02:32:51;;;;;;;12.83;4.80;;;3.60;99.90;;;;;;2612078;47;20436;-75
2022/01/05 02:35:17;;;;;;;10.53;4.70;;;3.60;99.90;;;;;;2613657;54;21914;-75
2022/01/05 02:37:45;;;;;;;11.57;5.03;;;3.50;99.90;;;;;;2613098;46;20435;-75
2022/01/05 02:40:14;;;;;;;5.67;4.10;;;3.50;99.90;;;;;;2613706;54;21006;-74
2022/01/05 02:42:40;;;;;;;6.70;5.20;;;3.40;99.90;;;;;;2611066;54;20409;-76
2022/01/05 02:45:07;;;;;;;3.70;3.27;;;3.30;99.90;;;;;;2614764;54;21451;-76
2022/01/05 02:47:35;;;;;;;12.10;5.27;;;3.30;99.90;;;;;;2613103;54;20405;-75
2022/01/05 02:50:02;;;;;;;10.23;5.90;;;3.30;99.90;;;;;;2615306;31;20869;-74
2022/01/05 02:52:29;;;;;;;7.90;3.50;;;3.30;99.90;;;;;;2611029;54;20435;-74
2022/01/05 02:54:55;;;;;;;9.77;5.20;;;3.30;99.90;;;;;;2614341;47;20466;-76
2022/01/05 02:57:21;;;;;;;11.17;5.30;;;3.30;99.90;;;;;;2613714;54;20375;-75
2022/01/05 02:59:47;;;;;;;5.73;4.73;;;3.30;99.90;;;;;;2613685;54;21284;-75
2022/01/05 03:02:12;;;;;;;9.33;5.30;;;3.20;99.90;;;;;;2614604;39;20538;-77
2022/01/05 03:04:39;;;;;;;8.23;5.20;;;3.20;99.90;;;;;;2615326;54;20158;-75
2022/01/05 03:07:05;;;;;;;14.10;7.10;;;3.20;99.90;;;;;;2615072;50;20166;-76
2022/01/05 03:09:32;;;;;;;3.37;2.97;;;3.20;99.90;;;;;;2615704;54;20470;-75
2022/01/05 03:11:57;;;;;;;10.67;4.80;;;3.10;99.90;;;;;;2613157;54;20151;-75
2022/01/05 03:14:23;;;;;;;11.37;6.07;;;3.10;99.90;;;;;;2612767;54;21057;-75
2022/01/05 03:16:49;;;;;;;13.73;5.13;;;3.10;99.90;;;;;;2613500;54;20201;-75
2022/01/05 03:19:16;;;;;;;17.70;4.13;;;3.00;99.90;;;;;;2614115;39;20563;-77
2022/01/05 03:21:41;;;;;;;5.23;4.63;;;3.10;99.90;;;;;;2614967;54;20943;-74
2022/01/05 03:24:07;;;;;;;7.00;5.67;;;3.10;99.90;;;;;;2615049;47;20538;-73
2022/01/05 03:26:33;;;;;;;9.30;6.00;;;3.00;99.90;;;;;;2614049;39;21119;-76
2022/01/05 03:28:59;;;;;;;14.30;5.73;;;3.00;99.90;;;;;;2612759;39;20889;-74
2022/01/05 03:31:25;;;;;;;5.30;3.30;;;2.90;99.90;;;;;;2612151;54;20131;-74
2022/01/05 03:34:00;;;;;;;17.13;5.57;;;3.00;99.90;;;;;;2614911;54;20146;-75
2022/01/05 03:36:26;;;;;;;6.60;4.37;;;2.90;99.90;;;;;;2611843;39;21165;-75
2022/01/05 03:38:52;;;;;;;7.40;4.13;;;2.90;99.90;;;;;;2612841;54;20415;-76
2022/01/05 03:41:18;;;;;;;7.03;4.47;;;2.90;99.90;;;;;;2611666;54;21004;-76
2022/01/05 03:43:44;;;;;;;14.90;4.73;;;2.80;99.90;;;;;;2611380;47;20427;-76
2022/01/05 03:46:09;;;;;;;12.00;5.23;;;2.90;99.90;;;;;;2611584;49;20702;-77
2022/01/05 03:48:35;;;;;;;11.57;5.40;;;2.80;99.90;;;;;;2609697;54;20232;-75
2022/01/05 03:51:01;;;;;;;9.47;4.90;;;2.70;99.90;;;;;;2609244;54;20131;-75
2022/01/05 03:53:27;;;;;;;19.63;4.60;;;2.70;99.90;;;;;;2611335;47;20167;-75
2022/01/05 03:55:52;;;;;;;3.60;3.30;;;2.70;99.90;;;;;;2611541;54;20167;-75
2022/01/05 03:58:18;;;;;;;2.63;2.47;;;2.70;99.90;;;;;;2613072;39;20586;-74
2022/01/05 04:00:47;;;;;;;6.73;3.80;;;2.70;99.90;;;;;;2610438;46;20732;-75
2022/01/05 04:03:13;;;;;;;10.53;4.70;;;2.60;99.90;;;;;;2613062;47;20166;-74
2022/01/05 04:05:41;;;;;;;3.83;3.27;;;2.60;99.90;;;;;;2612333;54;20422;-77
2022/01/05 04:08:09;;;;;;;3.70;3.40;;;2.70;99.90;;;;;;2613704;47;20458;-75
2022/01/05 04:10:35;;;;;;;12.60;4.27;;;2.60;99.90;;;;;;2613486;54;20427;-75
2022/01/05 04:13:02;;;;;;;11.93;3.30;;;2.50;99.90;;;;;;2610524;54;20507;-75
2022/01/05 04:15:28;;;;;;;5.80;3.13;;;2.60;99.90;;;;;;2613213;47;20198;-75
2022/01/05 04:17:54;;;;;;;4.20;3.80;;;2.50;99.90;;;;;;2613312;47;20442;-75
2022/01/05 04:20:21;;;;;;;14.87;5.60;;;2.50;99.90;;;;;;2611603;39;20832;-75
2022/01/05 04:22:49;;;;;;;4.50;4.10;;;2.50;99.90;;;;;;2612926;47;20423;-76
2022/01/05 04:25:16;;;;;;;5.80;3.13;;;2.50;99.90;;;;;;2613386;47;20415;-75
2022/01/05 04:27:42;;;;;;;16.17;5.27;;;2.50;99.90;;;;;;2612806;54;20934;-74
2022/01/05 04:30:10;;;;;;;7.20;5.23;;;2.50;99.90;;;;;;2612511;54;20424;-75
2022/01/05 04:32:36;;;;;;;5.97;4.50;;;2.40;99.90;;;;;;2610744;54;20508;-75
2022/01/05 04:35:02;;;;;;;5.00;4.53;;;2.30;99.90;;;;;;2612933;54;20387;-75
2022/01/05 04:37:29;;;;;;;7.80;3.93;;;2.40;99.90;;;;;;2611695;47;20178;-76
2022/01/05 04:39:55;;;;;;;8.87;3.60;;;2.40;99.90;;;;;;2613264;54;21524;-74
2022/01/05 04:42:21;;;;;;;6.40;3.20;;;2.40;99.90;;;;;;2611697;54;20382;-76
2022/01/05 04:44:47;;;;;;;7.10;3.70;;;2.40;99.90;;;;;;2612633;54;20667;-75
2022/01/05 04:47:13;;;;;;;6.87;3.87;;;2.40;99.90;;;;;;2610803;54;20161;-75
2022/01/05 04:49:39;;;;;;;18.03;4.13;;;2.30;99.90;;;;;;2613495;47;20440;-75
2022/01/05 04:52:05;;;;;;;12.53;4.67;;;2.30;99.90;;;;;;2611705;54;20708;-75
2022/01/05 04:54:31;;;;;;;8.83;3.97;;;2.30;99.90;;;;;;2613584;54;21040;-75
2022/01/05 04:56:57;;;;;;;6.93;3.77;;;2.20;99.90;;;;;;2609905;54;20395;-76
2022/01/05 04:59:23;;;;;;;3.07;2.87;;;2.30;99.90;;;;;;2613409;54;20404;-74
2022/01/05 05:01:48;;;;;;;4.13;2.90;;;2.30;99.90;;;;;;2609632;54;20154;-77
2022/01/05 05:04:14;;;;;;;2.83;2.53;;;2.40;99.90;;;;;;2613575;54;20158;-74
2022/01/05 05:06:40;;;;;;;3.60;3.30;;;2.40;99.90;;;;;;2610769;54;20169;-74
2022/01/05 05:09:07;;;;;;;12.83;4.70;;;2.40;99.90;;;;;;2613761;54;20800;-74
2022/01/05 05:11:33;;;;;;;9.70;5.10;;;2.40;99.90;;;;;;2612192;54;20411;-74
2022/01/05 05:13:59;;;;;;;3.87;3.40;;;2.50;99.90;;;;;;2609916;47;20460;-75
2022/01/05 05:16:25;;;;;;;11.23;5.23;;;2.50;99.90;;;;;;2612457;47;20562;-75
2022/01/05 05:18:51;;;;;;;9.77;5.20;;;2.40;99.90;;;;;;2614668;54;20686;-74
2022/01/05 05:21:17;;;;;;;6.30;4.80;;;2.30;99.90;;;;;;2613318;39;20574;-75
2022/01/05 05:23:43;;;;;;;8.23;5.77;;;2.40;99.90;;;;;;2613665;39;20811;-74
2022/01/05 05:26:08;;;;;;;16.13;6.20;;;2.60;99.90;;;;;;2613089;54;20414;-76
2022/01/05 05:28:34;;;;;;;22.30;6.20;;;2.50;99.90;;;;;;2613393;54;20415;-75
2022/01/05 05:31:00;;;;;;;7.13;5.03;;;2.50;99.90;;;;;;2612091;54;20250;-75
2022/01/05 05:33:26;;;;;;;12.87;4.60;;;2.40;99.90;;;;;;2610819;54;21171;-75
2022/01/05 05:35:52;;;;;;;10.33;4.40;;;2.40;99.90;;;;;;2613265;47;20319;-73
2022/01/05 05:38:17;;;;;;;6.13;4.73;;;2.40;99.90;;;;;;2612695;54;20428;-73
2022/01/05 05:40:44;;;;;;;6.57;5.33;;;2.50;99.90;;;;;;2611224;54;20169;-77
2022/01/05 05:43:10;;;;;;;8.63;5.40;;;2.50;99.90;;;;;;2610487;39;20706;-75
2022/01/05 05:45:36;;;;;;;5.80;3.60;;;2.50;99.90;;;;;;2613149;54;20404;-73
2022/01/05 05:48:01;;;;;;;6.43;4.40;;;2.40;99.90;;;;;;2611650;39;20929;-74
2022/01/05 05:50:29;;;;;;;20.63;5.27;;;2.40;99.90;;;;;;2611177;54;20538;-75
2022/01/05 05:52:55;;;;;;;4.67;4.27;;;2.40;99.90;;;;;;2611267;54;20154;-74
2022/01/05 05:55:21;;;;;;;11.63;4.33;;;2.40;99.90;;;;;;2612849;54;20435;-73
2022/01/05 05:57:47;;;;;;;4.07;3.67;;;2.30;99.90;;;;;;2611169;54;21099;-73
2022/01/05 06:00:13;;;;;;;7.97;4.00;;;2.40;99.90;;;;;;2613444;54;20143;-74
2022/01/05 06:02:40;;;;;;;6.43;3.60;;;2.40;99.90;;;;;;2610190;54;20423;-74
2022/01/05 06:05:06;;;;;;;12.37;6.00;;;2.40;99.90;;;;;;2613023;47;20932;-74
2022/01/05 06:07:32;;;;;;;6.20;4.07;;;2.30;99.90;;;;;;2611170;54;20442;-73
2022/01/05 06:09:59;;;;;;;12.00;6.10;;;2.30;99.90;;;;;;2613356;54;20405;-74
2022/01/05 06:12:25;;;;;;;8.37;4.57;;;2.30;99.90;;;;;;2609799;54;20139;-76
2022/01/05 06:14:51;;;;;;;6.87;4.30;;;2.40;99.90;;;;;;2612525;54;20419;-74
2022/01/05 06:17:17;;;;;;;7.03;4.67;;;2.40;99.90;;;;;;2611066;54;20427;-75
2022/01/05 06:19:43;;;;;;;7.73;5.30;;;2.50;99.90;;;;;;2613669;54;20154;-75
2022/01/05 06:22:10;;;;;;;14.30;5.90;;;2.40;99.90;;;;;;2610227;54;21147;-76
2022/01/05 06:24:38;;;;;;;6.53;4.90;;;2.50;99.90;;;;;;2613039;54;20158;-74
2022/01/05 06:27:05;;;;;;;9.30;4.47;;;2.50;99.90;;;;;;2611352;54;20438;-73
2022/01/05 06:29:30;;;;;;;15.10;5.90;;;2.50;99.90;;;;;;2612857;54;20407;-74
2022/01/05 06:31:56;;;;;;;19.30;5.80;;;2.50;99.90;;;;;;2608403;54;20907;-74
2022/01/05 06:34:22;;;;;;;4.90;4.10;;;2.60;99.90;;;;;;2609787;54;20200;-74
2022/01/05 06:36:48;;;;;;;4.53;3.60;;;2.60;99.90;;;;;;2607973;54;20424;-75
2022/01/05 06:39:15;;;;;;;5.27;4.77;;;2.60;99.90;;;;;;2606472;47;20201;-74
2022/01/05 06:41:41;;;;;;;6.33;4.23;;;2.60;99.90;;;;;;2608201;54;20427;-76
2022/01/05 06:44:08;;;;;;;6.63;5.13;;;2.60;99.90;;;;;;2607844;51;20423;-75
2022/01/05 06:46:34;;;;;;;10.37;5.97;;;2.60;99.90;;;;;;2607506;54;20731;-75
2022/01/05 06:49:00;;;;;;;15.10;5.60;;;2.60;99.90;;;;;;2611060;39;20782;-74
2022/01/05 06:51:26;;;;;;;9.50;5.20;;;2.60;99.90;;;;;;2606850;54;20466;-73
2022/01/05 06:53:52;;;;;;;10.23;5.77;;;2.60;99.90;;;;;;2610325;39;20797;-76
2022/01/05 06:56:17;;;;;;;9.90;4.90;;;2.60;99.90;;;;;;2609179;54;20480;-74
2022/01/05 06:58:43;;;;;;;9.77;4.87;;;2.60;99.90;;;;;;2611414;54;20147;-77
2022/01/05 07:01:09;;;;;;;5.47;4.17;;;2.70;99.90;;;;;;2608920;47;20186;-76
2022/01/05 07:03:35;;;;;;;14.30;5.37;;;2.70;99.90;;;;;;2612020;54;20151;-76
2022/01/05 07:06:00;;;;;;;10.50;5.53;;;2.70;99.90;;;;;;2613166;39;20585;-75
2022/01/05 07:08:26;;;;;;;11.50;5.80;;;2.80;99.90;;;;;;2611362;54;20708;-75
2022/01/05 07:10:52;;;;;;;5.40;4.60;;;2.70;99.90;;;;;;2610550;54;20181;-75
2022/01/05 07:13:18;;;;;;;7.53;4.70;;;2.60;99.90;;;;;;2609624;54;20170;-74
2022/01/05 07:15:44;;;;;;;8.13;4.80;;;2.70;99.90;;;;;;2611062;51;20194;-74
2022/01/05 07:18:09;;;;;;;15.83;4.53;;;2.60;99.90;;;;;;2611961;47;20197;-77
2022/01/05 07:20:35;;;;;;;4.87;4.17;;;2.60;99.90;;;;;;2612992;39;20304;-77
2022/01/05 07:23:03;;;;;;;8.83;3.80;;;2.60;99.90;;;;;;2612272;54;20178;-77
2022/01/05 07:25:30;;;;;;;9.97;3.77;;;2.50;99.90;;;;;;2610470;47;20427;-74
2022/01/05 07:27:56;;;;;;;5.90;4.17;;;2.50;99.90;;;;;;2611779;47;20479;-77
2022/01/05 07:30:22;;;;;;;8.60;5.30;;;2.50;99.90;;;;;;2612921;54;20474;-75
2022/01/05 07:32:49;;;;;;;9.40;4.10;;;2.50;99.90;;;;;;2612732;54;20655;-77
2022/01/05 07:35:15;;;;;;;12.83;5.03;;;2.50;99.90;;;;;;2610316;54;20266;-74
2022/01/05 07:37:41;;;;;;;6.13;4.20;;;2.50;99.90;;;;;;2604866;39;20490;-75
2022/01/05 07:40:08;;;;;;;11.20;4.90;;;2.60;99.90;;;;;;2607424;54;20407;-73
2022/01/05 07:42:35;;;;;;;10.73;6.40;;;2.60;99.90;;;;;;2611074;47;20524;-75
2022/01/05 07:45:06;;;;;;;14.37;6.80;;;2.50;99.90;;;;;;2611737;54;20498;-76
2022/01/05 07:47:32;;;;;;;8.27;5.70;;;2.70;99.90;;;;;;2612311;39;20811;-74
2022/01/05 07:49:58;;;;;;;11.50;4.50;;;2.80;99.90;;;;;;2610808;54;20395;-75
2022/01/05 07:52:24;;;;;;;13.67;4.70;;;2.80;99.90;;;;;;2611322;39;21252;-76
2022/01/05 07:54:52;;;;;;;11.40;4.60;;;2.90;99.90;;;;;;2612946;54;21090;-75
2022/01/05 07:57:18;;;;;;;14.90;4.37;;;2.90;99.90;;;;;;2611620;39;20823;-75
2022/01/05 07:59:44;;;;;;;12.87;5.40;;;2.90;99.90;;;;;;2611689;47;20415;-75
2022/01/05 08:02:10;;;;;;;9.33;4.63;;;3.00;99.90;;;;;;2608870;39;20807;-75
2022/01/05 08:04:36;;;;;;;7.53;4.33;;;3.00;99.90;;;;;;2607811;47;20415;-76
2022/01/05 08:07:02;;;;;;;8.53;5.27;;;3.00;99.90;;;;;;2609504;54;20411;-74
2022/01/05 08:09:29;;;;;;;12.80;4.80;;;3.10;99.90;;;;;;2611934;46;21336;-74
2022/01/05 08:11:58;;;;;;;8.00;5.70;;;3.10;99.90;;;;;;2608501;54;20162;-76
2022/01/05 08:14:24;;;;;;;4.03;3.03;;;3.10;99.90;;;;;;2610766;39;21055;-74
2022/01/05 08:16:50;;;;;;;9.37;6.10;;;3.10;99.90;;;;;;2609054;54;21015;-74
2022/01/05 08:19:17;;;;;;;9.03;4.93;;;3.10;99.90;;;;;;2608077;47;20707;-75
2022/01/05 08:21:42;;;;;;;6.40;5.10;;;3.20;99.90;;;;;;2609545;47;20414;-74
2022/01/05 08:24:08;;;;;;;10.93;4.80;;;3.20;99.90;;;;;;2609405;54;21458;-75
2022/01/05 08:26:34;;;;;;;8.70;6.23;;;3.20;99.90;;;;;;2610293;54;20407;-75
2022/01/05 08:29:00;;;;;;;14.67;5.00;;;3.20;99.90;;;;;;2612235;54;20671;-76
2022/01/05 08:31:26;;;;;;;9.83;5.40;;;3.20;99.90;;;;;;2609454;47;20295;-75
2022/01/05 08:33:56;;;;;;;9.57;5.47;;;3.30;99.90;;;;;;2610806;46;20194;-74
2022/01/05 08:36:23;;;;;;;5.70;4.83;;;3.30;99.90;;;;;;2609342;54;20419;-75
2022/01/05 08:38:48;;;;;;;8.10;6.00;;;3.40;99.90;;;;;;2611487;39;20810;-75
2022/01/05 08:41:15;;;;;;;10.70;6.40;;;3.40;99.90;;;;;;2609645;47;20442;-75
2022/01/05 08:43:42;;;;;;;12.73;6.13;;;3.50;99.90;;;;;;2610936;54;20452;-75
2022/01/05 08:46:08;;;;;;;11.97;6.70;;;3.40;99.90;;;;;;2611164;54;20400;-75
2022/01/05 08:48:34;;;;;;;11.97;5.47;;;3.40;99.90;;;;;;2611595;46;20435;-74
2022/01/05 08:51:01;;;;;;;14.43;7.20;;;3.40;99.90;;;;;;2610887;39;20643;-74
2022/01/05 08:53:26;;;;;;;8.53;4.20;;;3.40;99.90;;;;;;2633736;36;20572;-74
2022/01/05 08:55:52;;;;;;;9.60;4.43;;;3.40;99.90;;;;;;2609591;54;20419;-74
2022/01/05 08:58:20;;;;;;;10.90;5.80;;;3.40;99.90;;;;;;2607457;54;20147;-74
2022/01/05 09:00:48;;;;;;;8.97;4.87;;;3.40;99.90;;;;;;2611177;54;20453;-75
2022/01/05 09:03:16;;;;;;;10.27;5.07;;;3.50;99.90;;;;;;2610411;47;20407;-79
2022/01/05 09:05:43;;;;;;;9.73;5.40;;;3.50;99.90;;;;;;2610452;54;20464;-75
2022/01/05 09:08:09;;;;;;;11.80;5.73;;;3.50;99.90;;;;;;2612583;54;20523;-74
2022/01/05 09:10:35;;;;;;;15.33;6.60;;;3.60;99.90;;;;;;2610884;54;20412;-76
2022/01/05 09:13:01;;;;;;;11.83;4.97;;;3.70;99.90;;;;;;2610705;39;20458;-75
2022/01/05 09:15:30;;;;;;;13.73;6.53;;;3.60;99.90;;;;;;2610325;47;20442;-73
2022/01/05 09:17:57;;;;;;;10.30;6.07;;;3.60;99.90;;;;;;2609346;54;20507;-76
2022/01/05 09:20:23;;;;;;;11.07;6.50;;;3.70;99.90;;;;;;2611081;54;20415;-74
2022/01/05 09:22:48;;;;;;;8.73;6.23;;;3.70;99.90;;;;;;2610717;39;20896;-75
2022/01/05 09:25:18;;;;;;;14.63;6.30;;;3.70;99.90;;;;;;2611528;54;20702;-76
2022/01/05 09:27:46;;;;;;;21.03;6.00;;;3.70;99.90;;;;;;2611209;47;20422;-75
2022/01/05 09:30:13;;;;;;;8.03;6.50;;;3.80;99.90;;;;;;2611553;54;20442;-75
2022/01/05 09:32:39;;;;;;;14.93;8.40;;;3.70;99.90;;;;;;2608927;47;20424;-77
2022/01/05 09:35:07;;;;;;;20.80;6.73;;;3.80;99.90;;;;;;2610907;54;20411;-74
2022/01/05 09:37:39;;;;;;;15.13;8.60;;;3.80;99.90;;;;;;2610776;54;20484;-74
2022/01/05 09:42:50;;;;;;;10.53;7.93;;;3.80;99.90;;;;;;2612262;39;20815;-74
2022/01/05 09:45:16;;;;;;;13.63;10.23;;;3.70;99.90;;;;;;2609182;54;20479;-74
2022/01/05 09:48:20;;;;;;;12.57;7.47;;;3.80;99.90;;;;;;2626545;36;20419;-74
2022/01/05 09:50:55;;;;;;;9.53;7.63;;;3.90;99.90;;;;;;2610577;54;20261;-75
2022/01/05 09:53:23;;;;;;;17.50;9.70;;;4.00;99.90;;;;;;2610902;54;20491;-75
2022/01/05 09:55:53;;;;;;;12.70;9.07;;;4.10;99.90;;;;;;2610632;47;20578;-76
2022/01/05 09:58:21;;;;;;;8.97;6.10;;;4.20;99.90;;;;;;2610835;54;20515;-74
2022/01/05 10:00:48;;;;;;;10.60;6.10;;;4.20;99.90;;;;;;2611021;54;20431;-75
2022/01/05 10:03:14;;;;;;;10.73;6.67;;;4.20;99.90;;;;;;2610638;47;20435;-74
2022/01/05 10:05:41;;;;;;;12.07;7.70;;;4.20;99.90;;;;;;2611523;54;20987;-73
2022/01/05 10:08:08;;;;;;;10.43;7.13;;;4.10;99.90;;;;;;2611307;54;20439;-75
2022/01/05 10:10:34;;;;;;;14.00;7.10;;;4.10;99.90;;;;;;2609447;47;21079;-76
2022/01/05 10:13:01;;;;;;;11.00;6.97;;;4.00;99.90;;;;;;2610230;47;20424;-76
2022/01/05 10:15:28;;;;;;;11.23;6.10;;;4.00;99.90;;;;;;2608698;46;20175;-76
2022/01/05 10:18:14;;;;;;;13.37;6.77;;;4.00;99.90;;;;;;2608708;31;20900;-75
2022/01/05 10:21:03;;;;;;;14.00;7.70;;;4.00;99.90;;;;;;2611395;54;20422;-76
2022/01/05 10:23:45;;;;;;;11.63;9.00;;;4.00;99.90;;;;;;2609253;54;20431;-74
2022/01/05 10:26:31;;;;;;;12.17;10.17;;;4.00;99.90;;;;;;2610518;51;20446;-76
2022/01/05 10:29:04;;;;;;;11.07;9.10;;;3.90;99.90;;;;;;2611198;39;20955;-76
2022/01/05 10:31:55;;;;;;;22.90;10.03;;;3.90;99.90;;;;;;2628422;36;20850;-75
2022/01/05 10:34:26;;;;;;;16.63;8.30;;;3.90;99.90;;;;;;2611729;47;20419;-76
2022/01/05 10:36:58;;;;;;;9.17;8.23;;;3.80;99.90;;;;;;2610041;47;20431;-74
2022/01/05 10:39:35;;;;;;;15.63;9.77;;;3.80;99.90;;;;;;2609496;54;20406;-75
2022/01/05 10:42:32;;;;;;;15.90;8.97;;;3.90;99.90;;;;;;2609806;54;20415;-75
2022/01/05 10:44:58;;;;;;;7.40;5.97;;;3.90;99.90;;;;;;2608626;54;20435;-76
2022/01/05 10:47:25;;;;;;;9.07;8.17;;;3.90;99.90;;;;;;2610702;54;22061;-75
2022/01/05 10:49:51;;;;;;;7.90;7.10;;;3.90;99.90;;;;;;2610387;54;20437;-74
2022/01/05 10:52:27;;;;;;;9.13;8.17;;;3.90;99.90;;;;;;2609675;54;20951;-76
2022/01/05 10:55:12;;;;;;;11.37;8.33;;;3.90;99.90;;;;;;2612092;39;20802;-75
2022/01/05 10:57:53;;;;;;;18.47;9.37;;;3.90;99.90;;;;;;2608546;49;20415;-77
2022/01/05 11:00:31;;;;;;;11.53;9.07;;;3.90;99.90;;;;;;2609324;54;20385;-75
2022/01/05 11:02:57;;;;;;;12.60;8.80;;;3.90;99.90;;;;;;2612233;46;20439;-75
2022/01/05 11:05:22;;;;;;;16.87;10.40;;;3.90;99.90;;;;;;2610360;47;20991;-77
2022/01/05 11:07:48;;;;;;;18.80;10.10;;;3.80;99.90;;;;;;2610307;54;20410;-74
2022/01/05 11:10:17;;;;;;;15.03;7.40;;;3.70;99.90;;;;;;2610946;54;20177;-75
2022/01/05 11:12:50;;;;;;;12.53;7.23;;;3.70;99.90;;;;;;2609785;47;20737;-76
2022/01/05 11:15:33;;;;;;;12.03;6.90;;;3.70;99.90;;;;;;2610420;54;20412;-75
2022/01/05 11:18:09;;;;;;;13.13;7.40;;;3.80;99.90;;;;;;2610417;47;21245;-76
2022/01/05 11:20:52;;;;;;;15.60;8.17;;;3.80;99.90;;;;;;2611581;39;20788;-75
2022/01/05 11:23:23;;;;;;;8.53;5.70;;;3.80;99.90;;;;;;2610703;46;21115;-76
2022/01/05 11:25:51;;;;;;;11.27;6.83;;;3.80;99.90;;;;;;2611237;54;20419;-74
2022/01/05 11:28:19;;;;;;;12.20;7.90;;;3.80;99.90;;;;;;2610014;54;20419;-75
2022/01/05 11:30:46;;;;;;;14.90;7.20;;;3.80;99.90;;;;;;2611253;54;20435;-74
2022/01/05 11:33:13;;;;;;;12.50;7.60;;;3.80;99.90;;;;;;2610942;39;20834;-75
2022/01/05 11:35:40;;;;;;;9.13;7.53;;;3.80;99.90;;;;;;2611344;54;20954;-75
2022/01/05 11:38:08;;;;;;;9.97;6.90;;;3.80;99.90;;;;;;2611153;51;20416;-75
2022/01/05 11:40:37;;;;;;;17.80;8.13;;;3.80;99.90;;;;;;2610836;54;20420;-74
2022/01/05 11:43:11;;;;;;;8.70;5.83;;;3.90;99.90;;;;;;2612103;51;20446;-74
2022/01/05 11:45:45;;;;;;;12.67;5.20;;;3.90;99.90;;;;;;2611472;54;20860;-75
2022/01/05 11:48:17;;;;;;;9.07;5.83;;;4.00;99.90;;;;;;2614153;54;20399;-75
2022/01/05 11:50:47;;;;;;;14.30;7.40;;;4.00;99.90;;;;;;2611243;54;21162;-75
2022/01/05 11:53:14;;;;;;;19.30;7.70;;;4.00;99.90;;;;;;2610511;47;20427;-76
2022/01/05 11:55:58;;;;;;;9.40;5.63;;;4.00;99.90;;;;;;2610762;54;20432;-77
2022/01/05 11:58:26;;;;;;;12.47;5.00;;;4.00;99.90;;;;;;2609560;54;20419;-75
2022/01/05 12:01:17;;;;;;;7.20;5.30;;;4.10;99.90;;;;;;2609376;54;20415;-76
2022/01/05 12:03:49;;;;;;;11.63;5.80;;;4.00;99.90;;;;;;2610838;54;20966;-73
2022/01/05 12:06:20;;;;;;;13.70;6.00;;;4.10;99.90;;;;;;2611176;47;20458;-77
2022/01/05 12:08:52;;;;;;;10.07;6.53;;;4.10;99.90;;;;;;2611965;47;20419;-74
2022/01/05 12:11:30;;;;;;;11.37;7.13;;;4.10;99.90;;;;;;2609792;39;20859;-77
2022/01/05 12:14:07;;;;;;;12.47;7.00;;;4.10;99.90;;;;;;2611048;54;20410;-75
2022/01/05 12:17:01;;;;;;;12.50;4.93;;;4.10;99.90;;;;;;2610664;47;20467;-74
2022/01/05 12:19:35;;;;;;;15.97;8.40;;;4.20;99.90;;;;;;2609924;39;20922;-75
2022/01/05 12:22:15;;;;;;;9.53;5.03;;;4.20;99.90;;;;;;2610513;54;20963;-76
2022/01/05 12:25:09;;;;;;;14.40;6.97;;;4.20;99.90;;;;;;2610718;54;20419;-74
2022/01/05 12:27:38;;;;;;;14.87;6.37;;;4.20;99.90;;;;;;2611026;54;20420;-74
2022/01/05 12:30:16;;;;;;;8.50;5.70;;;4.30;99.90;;;;;;2611294;54;20403;-73
2022/01/05 12:32:45;;;;;;;13.40;6.43;;;4.40;99.90;;;;;;2609834;54;21042;-76
2022/01/05 12:35:19;;;;;;;11.67;7.60;;;4.40;99.90;;;;;;2611940;54;20400;-74
2022/01/05 12:37:51;;;;;;;9.57;5.10;;;4.50;99.90;;;;;;2611243;54;20386;-73
2022/01/05 12:40:33;;;;;;;15.47;7.20;;;4.40;99.90;;;;;;2612453;54;21023;-75
2022/01/05 12:43:19;;;;;;;10.83;6.73;;;4.50;99.90;;;;;;2610371;47;20987;-76
2022/01/05 12:45:45;;;;;;;19.13;5.37;;;4.40;99.90;;;;;;2610304;47;20390;-76
2022/01/05 12:48:36;;;;;;;6.53;4.77;;;4.40;99.90;;;;;;2609654;54;20399;-76
2022/01/05 12:53:52;;;;;;;7.67;5.30;;;4.50;99.90;;;;;;2611518;54;21012;-74
2022/01/05 12:56:20;;;;;;;11.60;6.43;;;4.60;99.90;;;;;;2611100;39;20842;-77
2022/01/05 12:58:51;;;;;;;4.63;4.13;;;4.70;99.90;;;;;;2610707;54;20383;-76
2022/01/05 13:01:23;;;;;;;8.60;3.60;;;4.70;99.90;;;;;;2610375;47;20428;-76
2022/01/05 13:03:50;;;;;;;8.57;4.00;;;4.70;99.90;;;;;;2609868;39;20963;-74